Tiempo atmosférico en la estación meteorológica de Somosierra, Madrid (1450 m.)



Fecha
DESCASC
Temp. máxima en grados centígrados (hora)
DESCASC
Temp. mínima en grados centígrados (hora)
DESCASC
Temp. media en grados centígrados
DESCASC
Racha de viento máxima en m/sg (hora)
DESCASC
Velocidad máxima media en intervalos de 10 minutos(hora)
DESCASC
Precipitaciones diarias en mm
DESCASC
Precipitaciones de 00:00 a 06:00 en mm
DESCASC
Precipitaciones de 06:00 a 12:00 en mm
DESCASC
Precipitaciones de 12:00 a 18:00 en mm
DESCASC
Precipitaciones de 18:00 a 24:00 en mm
DESCASC
11-12-2019 5.6 (02:10) -0.9 (22:50) 2.3 10.28 (16:10) 2.78 (12:00) 14.6 0 14.6 0 0
10-12-2019 9 (15:50) -1.4 (07:00) 3.8 5.28 (11:40) 2.5 (11:40) 0 0 0 0 0
09-12-2019 6.4 (13:10) -0.3 (23:50) 3.1 10.28 (17:00) 4.72 (17:00) 0 0 0 0 0
08-12-2019 6.1 (10:30) 1.7 (00:00) 3.9 7.22 (22:10) 2.22 (22:30) 28 0 0 12.6 15.4
07-12-2019 9.6 (15:10) 0.2 (00:00) 4.9 4.17 (23:10) 1.67 (06:40) 0 0 0 0 0
06-12-2019 9.6 (14:20) 0.1 (00:00) 4.9 8.61 (02:40) 4.72 (02:40) 0 0 0 0 0
05-12-2019 9 (13:50) 0.9 (00:00) 4.9 9.17 (16:50) 3.33 (12:40) 0.2 0.2 0 0 0
04-12-2019 5.8 (11:10) 0.4 (00:00) 3.1 7.5 (05:30) 2.78 (04:00) 3.8 3.8 0 0 0
03-12-2019 4.7 (12:20) -5.2 (-00:0) -0.3 6.67 (22:40) 1.94 (12:40) 0 0 0 0 0
02-12-2019 5.8 (14:40) -1.7 (-00:0) 2.1 9.72 (10:40) 2.5 (08:40) 0 0 0 0 0
01-12-2019 2.6 (15:00) -1.5 (-00:0) 0.5 5.28 (09:20) 3.06 (09:10) 11.6 0 3 6.6 2
30-11-2019 7.3 (15:20) 0 (00:00) 3.7 9.72 (20:00) 4.72 (15:00) 29 9.2 0.4 9.8 9.6
29-11-2019 8.8 (13:30) 5.2 (00:00) 7 10.83 (00:40) 3.33 (01:10) 30 18.4 6.2 3.2 2.2
28-11-2019 8 (14:00) 4.2 (00:00) 6.1 9.72 (20:40) 3.61 (21:40) 3.2 0 1.2 0 2
27-11-2019 6.4 (14:00) 2.6 (00:00) 4.5 12.78 (01:00) 4.72 (03:30) 1.6 1.6 0 0 0
26-11-2019 7.6 (21:10) 3.6 (00:00) 5.6 11.11 (18:20) 5.83 (18:20) 11.4 0 6.2 2.2 3
25-11-2019 8.4 (15:20) 2.9 (00:00) 5.6 13.33 (02:40) 4.17 (02:40) 11.4 11.2 0.2 0 0
24-11-2019 5.8 (23:30) -0.5 (-00:0) 2.7 10.56 (00:30) 2.5 (00:30) 2.2 0 0 0 2.2
23-11-2019 2.9 (00:00) -0.9 (-00:0) 1 15 (07:10) 5.28 (00:40) 31.8 10.6 1 19 1.2
22-11-2019 5.3 (16:20) 1.2 (00:00) 3.3 14.72 (18:40) 6.94 (08:50) 36.4 1.6 9.8 14 11
21-11-2019 3.4 (15:20) -0.7 (-00:0) 1.4 5.83 (23:30) 2.78 (23:20) 19.2 0 1.8 17 0.4
20-11-2019 1.8 (13:30) -1.9 (-00:0) -0.1 8.61 (11:20) 5 (11:20) 1 0 0 1 0
19-11-2019 3.5 (13:10) -2.7 (-00:0) 0.4 10 (01:40) 2.5 (00:10) 9.8 0 3.2 6.6 0
18-11-2019 -0.1 (17:00) -1.5 (-00:0) -0.8 13.06 (05:30) 4.72 (22:40) 1.4 0 0 1.4 0
17-11-2019 3.8 (15:40) -1.9 (-00:0) 0.9 12.78 (15:50) 3.89 (15:50) 58.6 0 5 47.4 6.2
16-11-2019 0.7 (14:30) -3.4 (-00:0) -1.4 9.72 (05:40) 3.61 (05:10) 15.2 0 0 14.6 0.6
15-11-2019 -0.5 (16:00) -2.4 (-00:0) -1.5 9.72 (02:10) 2.5 (07:10) 1 0 0 1 0

Gráficas

Temp. máximas Temp. mínimas Temp. medias Precipitaciones Rachas de viento máximas Velocidades máximas media en intervalos de 10 minutos

Datos horarios

Fecha y hora oficial Temperatura (ºC) Velocidad del viento (km/h) Dirección del viento Racha (km/h) Dirección de racha Precipitación (mm) Presión (hPa) Tendencia (hPa) Humedad (%)
2019-12-14 23:00:00 3.9 -- -- 14 Este 0 854.8 -0.5 80
2019-12-14 22:00:00 4 -- -- 16 Sudeste 0 854.9 -0.2 83
2019-12-14 21:00:00 4.2 -- -- 14 Nordeste 0 854.9 -0.4 84
2019-12-14 20:00:00 4.4 -- -- 15 Oeste 0 855.3 0.6 84
2019-12-14 19:00:00 4.5 -- -- 13 Sur 0 855.1 0.1 76
2019-12-14 18:00:00 4.3 -- -- 11 Sudeste 0 855.3 0.3 76
2019-12-14 17:00:00 4.5 -- -- 16 Oeste 0 854.7 -1 81
2019-12-14 16:00:00 4.6 -- -- 15 Sudoeste 0 855 -1.2 76
2019-12-14 15:00:00 4.8 -- -- 23 Noroeste 0 855 -1.4 80
2019-12-14 14:00:00 4.2 -- -- 19 Oeste 0 855.7 -1.3 85
2019-12-14 13:00:00 4 -- -- 18 Nordeste 0 856.2 -0.4 84
2019-12-14 12:00:00 3.5 -- -- 16 Nordeste 0 856.4 0.1 88
2019-12-14 11:00:00 2.8 -- -- 18 Norte 0 857 0.9 92
2019-12-14 10:00:00 2.7 -- -- 18 Este 0 856.6 0.7 89
2019-12-14 09:00:00 2.8 -- -- 19 Este 0 856.3 1 90
2019-12-14 08:00:00 3 -- -- 15 Este 0 856.1 0.4 91
2019-12-14 07:00:00 3.2 -- -- 14 Norte 0 855.9 0.2 93
2019-12-14 06:00:00 3.2 -- -- 28 Norte 0 855.3 -0.9 93
2019-12-14 05:00:00 3.2 -- -- 34 Noroeste 0 855.7 -0.6 93
2019-12-14 04:00:00 3.3 -- -- 28 Noroeste 0 855.7 -0.3 92
2019-12-14 03:00:00 3.6 -- -- 31 Oeste 0 856.2 0.2 92
2019-12-14 02:00:00 4.2 -- -- 38 Oeste 0 856.3 1 93
2019-12-14 01:00:00 4.2 -- -- 34 Norte 0 856 0.2 93
2019-12-14 00:00:00 4.5 -- -- 37 Noroeste 0 856 0.4 93
2019-12-13 23:00:00 4.5 -- -- 40 Oeste 0 855.3 0 92
2019-12-13 22:00:00 5 -- -- 44 Norte 0 855.8 1 93
2019-12-13 21:00:00 5.3 -- -- 45 Oeste 0 855.6 0.9 97
2019-12-13 20:00:00 5.4 -- -- 42 Noroeste 0 855.3 0.5 98
2019-12-13 19:00:00 5.7 -- -- 46 Norte 0 854.8 0.5 98
2019-12-13 18:00:00 5.9 -- -- 47 Noroeste 0 854.7 1.2 99
2019-12-13 17:00:00 6.2 -- -- 49 Oeste 0 854.8 1.1 99
2019-12-13 16:00:00 6.2 -- -- 45 Noroeste 0 854.3 0.2 99
2019-12-13 15:00:00 6.3 -- -- 53 Noroeste 0 853.5 -0.9 99
2019-12-13 14:00:00 6.1 -- -- 52 Noroeste 0 853.7 -0.8 99
2019-12-13 13:00:00 5.8 -- -- 47 Noroeste 0 854.1 0.2 99
2019-12-13 12:00:00 5.5 -- -- 46 Oeste 0 854.4 1.3 99
2019-12-13 11:00:00 4.7 -- -- 42 Oeste 0 854.5 1.9 99
2019-12-13 10:00:00 4.5 -- -- 44 Noroeste 0 853.9 2 99
2019-12-13 09:00:00 4.4 -- -- 50 Sudoeste 0 853.1 1.6 99
2019-12-13 08:00:00 4.8 -- -- 48 Noroeste 0.2 852.6 0.6 99
2019-12-13 07:00:00 5.2 -- -- 50 Oeste 0 851.9 -0.4 99
2019-12-13 06:00:00 5.6 -- -- 40 Oeste 0 851.5 0 99
2019-12-13 05:00:00 5.9 -- -- 53 Sudoeste 0.6 852 0.8 99
2019-12-13 04:00:00 6.1 -- -- 42 Oeste 0.4 852.3 0.8 99
2019-12-13 03:00:00 6.1 -- -- 48 Oeste 1.6 851.5 0 99
2019-12-13 02:00:00 6.2 -- -- 46 Sudoeste 1 851.2 -0.4 99
2019-12-13 01:00:00 6 -- -- 45 Oeste 1 851.5 0.4 99
2019-12-13 00:00:00 5.9 -- -- 51 Oeste 4.6 851.5 0 99
2019-12-12 23:00:00 5.6 -- -- 41 Oeste 6 851.6 0.5 99
2019-12-12 22:00:00 5.4 -- -- 39 Noroeste 2.8 851.1 0.1 99
2019-12-12 21:00:00 4.9 -- -- 42 Oeste 8 851.5 0.5 99
2019-12-12 20:00:00 4.2 -- -- 36 Sudoeste 6.2 851.1 -0.1 98
2019-12-12 19:00:00 3.7 -- -- 42 Sudoeste 5.8 851 -0.7 99
2019-12-12 18:00:00 3.2 -- -- 49 Noroeste 6.4 851 -1.3 98
2019-12-12 17:00:00 2.3 -- -- 39 Oeste 4 851.2 -1.9 97
2019-12-12 16:00:00 2.2 -- -- 47 Sudoeste 4.2 851.7 -2.7 97
2019-12-12 15:00:00 1.8 -- -- 42 Sudoeste 3.4 852.3 -3.1 97
2019-12-12 14:00:00 1.1 -- -- 36 Sudoeste 4 853.1 -3.4 94
2019-12-12 13:00:00 0.6 -- -- 37 Sudoeste 2.8 854.4 -2.1 94
2019-12-12 12:00:00 0.8 -- -- 35 Sudoeste 2.8 855.4 -1 95
2019-12-12 11:00:00 0.4 -- -- 32 Sudoeste 2.4 856.5 0.3 98
2019-12-12 10:00:00 0.7 -- -- 33 Oeste 0.4 856.5 0.1 99
2019-12-12 09:00:00 0.6 -- -- 31 Oeste 0.4 856.4 -0.6 99
2019-12-12 08:00:00 0.3 -- -- 36 Sudoeste 0 856.2 -1.3 99
2019-12-12 07:00:00 0.1 -- -- 30 Oeste 0 856.4 -1.5 99
2019-12-12 06:00:00 -0.1 -- -- 33 Oeste 0 857 -1.5 99
2019-12-12 05:00:00 -0.2 -- -- 36 Noroeste 0 857.5 -1.3 99
2019-12-12 04:00:00 -0.3 -- -- 30 Oeste 0 857.9 -1.5 99
2019-12-12 03:00:00 -0.6 -- -- 36 Noroeste 0 858.5 -0.8 99
2019-12-12 02:00:00 -0.6 -- -- 39 Noroeste 0 858.8 -0.9 99
2019-12-12 01:00:00 -0.6 -- -- 31 Oeste 0 859.4 -0.5 99
2019-12-12 00:00:00 -0.6 -- -- 37 Noroeste 0 859.3 -1 98
2019-12-11 23:00:00 -0.7 -- -- 36 Oeste 0 859.7 -0.1 98
2019-12-11 22:00:00 -0.7 -- -- 31 Oeste 0 859.9 0.2 95
2019-12-11 21:00:00 -0.5 -- -- 33 Norte 0 860.3 1 93
2019-12-11 20:00:00 -0.1 -- -- 26 Noroeste 0 859.8 0.8 90
2019-12-11 19:00:00 -0.5 -- -- 30 Noroeste 0 859.7 0.8 88
2019-12-11 18:00:00 -0.4 -- -- 29 Noroeste 0 859.3 0.7 91
2019-12-11 17:00:00 1.3 -- -- 37 Noroeste 0 859 1 95
2019-12-11 16:00:00 2.3 -- -- 34 Oeste 0 858.9 0.7 99
2019-12-11 15:00:00 1.3 -- -- 32 Norte 0 858.6 -0.3 99
2019-12-11 14:00:00 0.8 -- -- 33 Noroeste 0 858 -1.1 99
2019-12-11 13:00:00 0.8 -- -- 33 Oeste 0 858.2 0.2 99
2019-12-11 12:00:00 1.7 -- -- 32 Oeste 0.2 858.9 0.7 99
2019-12-11 11:00:00 2.2 -- -- 29 Oeste 4.6 859.1 1.5 99
2019-12-11 10:00:00 2.8 -- -- 19 Sur 7.8 858 -0.4 95
2019-12-11 09:00:00 1.9 -- -- 25 Oeste 2 858.2 -0.2 76
2019-12-11 08:00:00 4.5 -- -- 14 Oeste 0 857.6 -1.4 28
2019-12-11 07:00:00 4.5 -- -- 21 Norte 0 858.4 -1.4 28
2019-12-11 06:00:00 4.2 -- -- 10 Nordeste 0 858.4 -1.6 29
2019-12-11 05:00:00 4 -- -- 17 Sudoeste 0 859 -1.5 36
2019-12-11 04:00:00 4.3 -- -- 9 Norte 0 859.8 -1.3 39
2019-12-11 03:00:00 4.1 -- -- 10 Norte 0 860 -1.2 42
2019-12-11 02:00:00 5.1 -- -- 14 Nordeste 0 860.5 -1 40
2019-12-11 01:00:00 4.4 -- -- 8 Este 0 861.1 -0.5 45
2019-12-11 00:00:00 4.3 -- -- 8 Nordeste 0 861.2 -0.9 40
2019-12-10 23:00:00 3.4 -- -- 18 Norte 0 861.5 -0.7 40
2019-12-10 22:00:00 3.4 -- -- 10 Norte 0 861.6 -0.6 41
2019-12-10 21:00:00 4.2 -- -- 6 Nordeste 0 862.1 -0.2 43
2019-12-10 20:00:00 3.8 -- -- 7 Este 0 862.2 -0.2 38
2019-12-10 19:00:00 3.7 -- -- 7 Norte 0 862.2 -0.5 40
2019-12-10 18:00:00 4.2 -- -- 9 Norte 0 862.3 -0.6 47
2019-12-10 17:00:00 5.4 -- -- 9 Nordeste 0 862.4 -1.5 42
2019-12-10 16:00:00 7.4 -- -- 8 Noroeste 0 862.7 -1.5 40
2019-12-10 15:00:00 6.1 -- -- 12 Norte 0 862.9 -2.1 39
2019-12-10 14:00:00 7.5 -- -- 14 Norte 0 863.9 -1 35
2019-12-10 13:00:00 7.5 -- -- 17 Norte 0 864.2 -0.5 37
2019-12-10 12:00:00 5.5 -- -- 19 Nordeste 0 865 0.4 38
2019-12-10 11:00:00 4.3 -- -- 13 Norte 0 864.9 0.2 46
2019-12-10 10:00:00 1.8 -- -- 14 Norte 0 864.7 -0.1 66
2019-12-10 09:00:00 -0.8 -- -- 9 Norte 0 864.6 -0.3 74
2019-12-10 08:00:00 -0.8 -- -- 3 Norte 0 864.7 0.5 76
2019-12-10 07:00:00 -1.3 -- -- 5 Norte 0 864.8 -0.7 84
2019-12-10 06:00:00 -0.5 -- -- 17 Nordeste 0 864.9 -0.7 88
2019-12-10 05:00:00 -0.9 -- -- 18 Norte 0 864.2 -1.4 97
2019-12-10 04:00:00 -0.9 -- -- 18 Noroeste 0 865.5 -0.3 97
2019-12-10 03:00:00 -0.6 -- -- 17 Norte 0 865.6 -0.4 96
2019-12-10 02:00:00 -0.6 -- -- 17 Norte 0 865.6 -0.1 96
2019-12-10 01:00:00 -0.3 -- -- 17 Norte 0 865.8 -0.1 96
2019-12-10 00:00:00 0 -- -- 25 Norte 0 866 0.4 96
2019-12-09 23:00:00 0.2 -- -- 28 Noroeste 0 865.7 0.3 95
2019-12-09 22:00:00 0.7 -- -- 26 Noroeste 0 865.9 1.2 94
2019-12-09 21:00:00 0.3 -- -- 26 Norte 0 865.6 0.9 93
2019-12-09 20:00:00 0.8 -- -- 24 Norte 0 865.4 0.7 90
2019-12-09 19:00:00 1 -- -- 27 Norte 0 864.7 0.2 86
2019-12-09 18:00:00 2.4 -- -- 35 Norte 0 864.7 0.3 76
2019-12-09 17:00:00 3.8 -- -- 37 Norte 0 864.7 0.1 68
2019-12-09 16:00:00 4.9 -- -- 28 Norte 0 864.5 -0.9 62
2019-12-09 15:00:00 5.1 -- -- 36 Nordeste 0 864.4 -0.9 56
2019-12-09 14:00:00 5.7 -- -- 35 Nordeste 0 864.6 -0.5 52
2019-12-09 13:00:00 6.3 -- -- 31 Noroeste 0 865.4 0.9 58
2019-12-09 12:00:00 5.1 -- -- 19 Noroeste 0 865.3 1.2 58
2019-12-09 11:00:00 4.3 -- -- 18 Norte 0 865.1 1 62
2019-12-09 10:00:00 2.1 -- -- 14 Noroeste 0 864.5 0.6 86
2019-12-09 09:00:00 0.6 -- -- 14 Noroeste 0 864.1 0.4 96
2019-12-09 08:00:00 2.3 -- -- 23 Noroeste 0 864.1 0.5 99
2019-12-09 07:00:00 2.8 -- -- 21 Nordeste 0 863.9 0.2 99
2019-12-09 06:00:00 2.6 -- -- 23 Noroeste 0 863.7 0.3 99
2019-12-09 05:00:00 3.2 -- -- 32 Norte 0 863.6 0 99
2019-12-09 04:00:00 3.4 -- -- 21 Norte 0 863.7 0.6 99
2019-12-09 03:00:00 3.5 -- -- 19 Norte 0 863.4 0.7 99
2019-12-09 02:00:00 3.7 -- -- 27 Norte 0 863.6 0.9 99
2019-12-09 01:00:00 4.2 -- -- 17 Norte 0 863.1 0.7 99
2019-12-09 00:00:00 4.4 -- -- 15 Noroeste 0 862.7 0.4 99
2019-12-08 23:00:00 5.2 -- -- 26 Nordeste 1.6 862.7 0.9 99
2019-12-08 22:00:00 5.9 -- -- 21 Noroeste 4 862.4 0.9 99
2019-12-08 21:00:00 6.1 -- -- 17 Norte 4.6 862.3 1.3 99
2019-12-08 20:00:00 5.9 -- -- 10 Nordeste 2.6 861.8 0.9 99
2019-12-08 19:00:00 5.9 -- -- 13 Norte 2.6 861.5 0.8 99
2019-12-08 18:00:00 5.7 -- -- 18 Norte 1.6 861 0 99
2019-12-08 17:00:00 5.7 -- -- 19 Norte 1.8 860.9 -0.3 99
2019-12-08 16:00:00 5.3 -- -- 12 Norte 3.6 860.7 -0.4 99
2019-12-08 15:00:00 4.4 -- -- 14 Noroeste 5.6 861 -0.7 99
2019-12-08 14:00:00 4.6 -- -- 14 Norte 0 861.2 -0.3 96
2019-12-08 13:00:00 5.6 -- -- 8 Norte 0 861.1 -0.5 97
2019-12-08 12:00:00 6 -- -- 12 Nordeste 0 861.7 0.3 83
2019-12-08 11:00:00 5.7 -- -- 18 Norte 0 861.5 0.2 76
2019-12-08 10:00:00 4.4 -- -- 10 Norte 0 861.6 0.6 76
2019-12-08 09:00:00 3 -- -- 6 Nordeste 0 861.4 0.6 76
2019-12-08 08:00:00 2.5 -- -- 10 Nordeste 0 861.3 0.2 83
2019-12-08 07:00:00 2 -- -- 7 Norte 0 861 0.2 88
2019-12-08 06:00:00 2.3 -- -- 15 Este 0 860.8 -0.5 86
2019-12-08 05:00:00 2.5 -- -- 10 Este 0 861.1 -0.2 76
2019-12-08 04:00:00 2.3 -- -- 4 Nordeste 0 860.8 -1.1 68
2019-12-08 03:00:00 2.2 -- -- 6 Nordeste 0 861.3 -0.8 70
2019-12-08 02:00:00 2.2 -- -- 10 Nordeste 0 861.3 -0.3 76
2019-12-08 01:00:00 2.3 -- -- 9 Nordeste 0 861.9 0.1 75
2019-12-08 00:00:00 3.2 -- -- 15 Nordeste 0 862.1 0.3 72
2019-12-07 23:00:00 2.7 -- -- 5 Nordeste 0 861.6 0.4 76
2019-12-07 22:00:00 2.9 -- -- 11 Este 0 861.8 1.2 91
2019-12-07 21:00:00 2.4 -- -- 10 Norte 0 861.8 1.5 93
2019-12-07 20:00:00 2.3 -- -- 8 Norte 0 861.2 1 91
2019-12-07 19:00:00 2.9 -- -- 9 Norte 0 860.6 0.6 91
2019-12-07 18:00:00 4.2 -- -- 11 Norte 0 860.3 0.5 88
2019-12-07 17:00:00 6.7 -- -- 10 Norte 0 860.2 0.3 76
2019-12-07 16:00:00 9.1 -- -- 14 Norte 0 860 -0.2 69
2019-12-07 15:00:00 9.1 -- -- 14 Nordeste 0 859.8 -1.2 63
2019-12-07 14:00:00 8.8 -- -- 14 Norte 0 859.9 -1 65
2019-12-07 13:00:00 8.2 -- -- 12 Norte 0 860.2 0 64
2019-12-07 12:00:00 6.5 -- -- 10 Nordeste 0 861 1 68
2019-12-07 11:00:00 5.1 -- -- 9 Norte 0 860.9 0.9 76
2019-12-07 10:00:00 3.2 -- -- 9 Noroeste 0 860.2 0.6 93
2019-12-07 09:00:00 0.4 -- -- 8 Nordeste 0 860 0.5 91
2019-12-07 08:00:00 0.8 -- -- 5 Sur 0 860 0.4 89
2019-12-07 07:00:00 0.5 -- -- 10 Sur 0 859.6 -0.3 92
2019-12-07 06:00:00 1.2 -- -- 5 Sudeste 0 859.5 -0.5 91
2019-12-07 05:00:00 0.7 -- -- 8 Nordeste 0 859.6 -0.3 97
2019-12-07 04:00:00 1 -- -- 6 Nordeste 0 859.9 -0.4 96
2019-12-07 03:00:00 1.8 -- -- 9 Norte 0 860 -0.3 98
2019-12-07 02:00:00 1.6 -- -- 4 Norte 0 859.9 -0.3 97
2019-12-07 01:00:00 1.2 -- -- 4 Sur 0 860.3 0.4 96
2019-12-07 00:00:00 2 -- -- 7 Sur 0 860.3 0.6 96
2019-12-06 23:00:00 1.1 -- -- 6 Este 0 860.2 0.6 97
2019-12-06 22:00:00 1.6 -- -- 8 Sur 0 859.9 0.9 97
2019-12-06 21:00:00 1.6 -- -- 7 Sur 0 859.7 0.8 95
2019-12-06 20:00:00 2 -- -- 6 Sur 0 859.6 1 93
2019-12-06 19:00:00 2.5 -- -- 8 Sur 0 859 0.6 90
2019-12-06 18:00:00 4.5 -- -- 6 Norte 0 858.9 0.4 83
2019-12-06 17:00:00 6.8 -- -- 10 Noroeste 0 858.6 -0.5 76
2019-12-06 16:00:00 7.5 -- -- 9 Noroeste 0 858.4 -1.1 74
2019-12-06 15:00:00 8.1 -- -- 12 Sudoeste 0 858.5 -1.1 70
2019-12-06 14:00:00 8.6 -- -- 15 Sur 0 859.1 -0.9 61
2019-12-06 13:00:00 7.4 -- -- 19 Sur 0 859.5 -0.1 65
2019-12-06 12:00:00 7 -- -- 18 Sur 0 859.6 0.3 71
2019-12-06 11:00:00 5.3 -- -- 17 Sur 0 860 1.2 76
2019-12-06 10:00:00 3.9 -- -- 7 Sudeste 0 859.6 1.1 91
2019-12-06 09:00:00 0.5 -- -- 10 Sur 0 859.3 1 95
2019-12-06 08:00:00 0.2 -- -- 7 Sur 0 858.8 0.4 95
2019-12-06 07:00:00 0.6 -- -- 5 Sur 0 858.5 0.2 95
2019-12-06 06:00:00 1.4 -- -- 10 Sudeste 0 858.3 0.2 93
2019-12-06 05:00:00 2.3 -- -- 12 Sur 0 858.4 0.2 91
2019-12-06 04:00:00 3.5 -- -- 24 Sur 0 858.3 -0.1 86
2019-12-06 03:00:00 3.3 -- -- 31 Sur 0 858.1 -0.4 88
2019-12-06 02:00:00 3.4 -- -- 27 Sudeste 0 858.2 0.2 89
2019-12-06 01:00:00 3.5 -- -- 28 Sudeste 0 858.4 0.5 88
2019-12-06 00:00:00 3.4 -- -- 25 Sur 0 858.5 1.1 88
2019-12-05 23:00:00 3.5 -- -- 23 Este 0 858 0.7 86
2019-12-05 22:00:00 3.4 -- -- 30 Este 0 857.9 1 87
2019-12-05 21:00:00 4.6 -- -- 28 Este 0 857.4 1.1 76
2019-12-05 20:00:00 4.5 -- -- 30 Este 0 857.3 1.1 76
2019-12-05 19:00:00 4.1 -- -- 24 Este 0 856.9 1.6 80
2019-12-05 18:00:00 4.5 -- -- 26 Este 0 856.3 1.2 76
2019-12-05 17:00:00 5.6 -- -- 33 Nordeste 0 856.2 1.2 70
2019-12-05 16:00:00 7.6 -- -- 29 Este 0 855.3 0 62
2019-12-05 15:00:00 6.7 -- -- 22 Nordeste 0 855.1 -0.5 65
2019-12-05 14:00:00 8.8 -- -- 27 Este 0 855 -0.5 61
2019-12-05 13:00:00 6.2 -- -- 29 Nordeste 0 855.3 0.9 70
2019-12-05 12:00:00 5.1 -- -- 14 Noroeste 0 855.6 1.6 88
2019-12-05 11:00:00 4.1 -- -- 15 Nordeste 0 855.5 2.1 91
2019-12-05 10:00:00 3 -- -- 11 Sudeste 0 854.4 1.6 98
2019-12-05 09:00:00 1.6 -- -- 16 Norte 0 854 2 99
2019-12-05 08:00:00 1.4 -- -- 13 Norte 0 853.4 1.6 99
2019-12-05 07:00:00 1.1 -- -- 17 Nordeste 0 852.8 1.3 99
2019-12-05 06:00:00 1.5 -- -- 13 Noroeste 0.2 852 0.5 99
2019-12-05 05:00:00 1.4 -- -- 12 Norte 0 851.8 0.8 99
2019-12-05 04:00:00 1.5 -- -- 13 Norte 0 851.5 0.8 99
2019-12-05 03:00:00 1.5 -- -- 13 Norte 0 851.5 1.4 99
2019-12-05 02:00:00 1.7 -- -- 17 Norte 0 851 1.3 99
2019-12-05 01:00:00 1.9 -- -- 15 Norte 0 850.7 1.4 99
2019-12-05 00:00:00 2.3 -- -- 15 Norte 0 850.1 0.8 99
2019-12-04 23:00:00 3 -- -- 21 Norte 0 849.7 0.8 99
2019-12-04 22:00:00 3.1 -- -- 21 Noroeste 0 849.3 0.7 99
2019-12-04 21:00:00 2.9 -- -- 26 Norte 0 849.3 0.8 99
2019-12-04 20:00:00 2.9 -- -- 21 Norte 0 848.9 0.6 99
2019-12-04 19:00:00 3.2 -- -- 21 Norte 0 848.6 0.8 99
2019-12-04 18:00:00 3.3 -- -- 22 Norte 0 848.5 1.2 98
2019-12-04 17:00:00 3.4 -- -- 26 Norte 0 848.3 0.8 96
2019-12-04 16:00:00 4.2 -- -- 23 Noroeste 0 847.8 -0.2 93
2019-12-04 15:00:00 4.8 -- -- 21 Norte 0 847.3 -1 89
2019-12-04 14:00:00 4.6 -- -- 21 Norte 0 847.5 -1.2 89
2019-12-04 13:00:00 5.2 -- -- 17 Norte 0 848 -0.8 86
2019-12-04 12:00:00 4.6 -- -- 12 Norte 0 848.3 -0.1 89
2019-12-04 11:00:00 5.3 -- -- 14 Nordeste 0 848.7 0.2 86
2019-12-04 10:00:00 4 -- -- 15 Nordeste 0 848.8 0.5 91
2019-12-04 09:00:00 3.1 -- -- 14 Nordeste 0 848.4 0.1 96
2019-12-04 08:00:00 2.1 -- -- 17 Sudoeste 0 848.5 -0.1 98
2019-12-04 07:00:00 2 -- -- 17 Sur 0 848.3 -1.2 95
2019-12-04 06:00:00 2 -- -- 27 Sudeste 0 848.3 -1.5 95
2019-12-04 05:00:00 2.4 -- -- 20 Sur 1.4 848.6 -1.8 93
2019-12-04 04:00:00 1.8 -- -- 25 Sudoeste 2.4 849.5 -1.4 96
2019-12-04 03:00:00 2.3 -- -- 21 Sudeste 0 849.8 -1.5 89
2019-12-04 02:00:00 2.5 -- -- 18 Sudeste 0 850.4 -1.1 85
2019-12-04 01:00:00 0.6 -- -- 8 Sur 0 850.9 -0.4 86
2019-12-04 00:00:00 0.9 -- -- 10 Sur 0 851.3 0 84
2019-12-03 23:00:00 1 -- -- 24 Sudeste 0 851.5 0.4 84
2019-12-03 22:00:00 -0.6 -- -- 12 Sudoeste 0 851.3 0.4 89
2019-12-03 21:00:00 -0.4 -- -- 9 Sudeste 0 851.3 0.6 87
2019-12-03 20:00:00 -0.5 -- -- 13 Sur 0 851.1 0.8 91
2019-12-03 19:00:00 -0.2 -- -- 13 Sur 0 850.9 0.3 89
2019-12-03 18:00:00 0.4 -- -- 7 Sur 0 850.7 0.1 82
2019-12-03 17:00:00 2.4 -- -- 11 Norte 0 850.3 -0.8 75
2019-12-03 16:00:00 3.2 -- -- 11 Noroeste 0 850.6 -1 70
2019-12-03 15:00:00 3.3 -- -- 10 Norte 0 850.6 -1.5 70
2019-12-03 14:00:00 2.8 -- -- 10 Nordeste 0 851.1 -1.4 70
2019-12-03 13:00:00 1.6 -- -- 14 Sur 0 851.6 -0.7 70
2019-12-03 12:00:00 4.3 -- -- 10 Sur 0 852.1 -0.3 54
2019-12-03 11:00:00 2.9 -- -- 7 Sur 0 852.5 0.2 62
2019-12-03 10:00:00 0.7 -- -- 5 Sudeste 0 852.3 0.1 74
2019-12-03 09:00:00 -3.8 -- -- -- -- 0 852.4 -0.4 88
2019-12-03 08:00:00 -4.4 -- -- 0 Calma 0 852.3 -0.4 92
2019-12-03 07:00:00 -3.9 -- -- 7 Norte 0 852.2 -0.8 95
2019-12-03 06:00:00 -4.4 -- -- 10 Nordeste 0 852.8 -0.6 97
2019-12-03 05:00:00 -2.9 -- -- 12 Norte 0 852.7 -1 88
2019-12-03 04:00:00 -2.9 -- -- 6 Norte 0 853 -0.8 90
2019-12-03 03:00:00 -2.7 -- -- 0 Calma 0 853.4 -1.2 90
2019-12-03 02:00:00 -2.4 -- -- 0 Calma 0 853.7 -1 89
2019-12-03 01:00:00 -1.8 -- -- -- -- 0 853.8 -0.8 90
2019-12-03 00:00:00 -1.4 -- -- 8 Sudeste 0 854.6 0 89
2019-12-02 23:00:00 -1.5 -- -- 8 Sur 0 854.7 0.3 89
2019-12-02 22:00:00 -0.7 -- -- 8 Sur 0 854.6 0.5 85
2019-12-02 21:00:00 -0.7 -- -- 8 Sur 0 854.6 0.8 84
2019-12-02 20:00:00 -0.2 -- -- 14 Sudeste 0 854.4 0.9 82
2019-12-02 19:00:00 -0.1 -- -- 11 Norte 0 854.1 1.1 81
2019-12-02 18:00:00 1.3 -- -- 19 Noroeste 0 853.8 1 76
2019-12-02 17:00:00 3.5 -- -- 14 Noroeste 0 853.5 0.7 71
2019-12-02 16:00:00 4.7 -- -- 18 Norte 0 853 -0.2 68
2019-12-02 15:00:00 5.2 -- -- 21 Norte 0 852.8 -0.5 64
2019-12-02 14:00:00 5 -- -- 28 Norte 0 852.8 -0.2 68
2019-12-02 13:00:00 5.5 -- -- 19 Nordeste 0 853.2 0.8 61
2019-12-02 12:00:00 4.4 -- -- 30 Norte 0 853.3 1.2 73
2019-12-02 11:00:00 2.7 -- -- 35 Noroeste 0 853 1.2 74
2019-12-02 10:00:00 1.9 -- -- 21 Oeste 0 852.4 1.1 85
2019-12-02 09:00:00 -0.1 -- -- 27 Norte 0 852.1 1.6 89
2019-12-02 08:00:00 -0.6 -- -- 14 Este 0 851.8 1.2 90
2019-12-02 07:00:00 -0.4 -- -- 12 Este 0 851.3 0.6 93
2019-12-02 06:00:00 -0.9 -- -- 10 Sudoeste 0 850.5 0.4 95
2019-12-02 05:00:00 -0.8 -- -- 4 Sudeste 0 850.6 0.8 95
2019-12-02 04:00:00 -0.4 -- -- 8 Este 0 850.7 0.5 94
2019-12-02 03:00:00 0 -- -- 12 Nordeste 0 850.1 0.1 93
2019-12-02 02:00:00 0.3 -- -- 14 Oeste 0 849.8 -0.3 91
2019-12-02 01:00:00 1.3 -- -- 4 Nordeste 0 850.2 0.6 95
2019-12-02 00:00:00 1.8 -- -- 14 Oeste 0.2 850 0.5 98
2019-12-01 23:00:00 2 -- -- 12 Sudoeste 0.2 850.1 0.8 98
2019-12-01 22:00:00 2 -- -- 10 Sur 0 849.6 0.9 99
2019-12-01 21:00:00 2.1 -- -- 14 Norte 0 849.5 1.2 99
2019-12-01 20:00:00 2 -- -- 9 Noroeste 0.2 849.3 0.9 99
2019-12-01 19:00:00 2.1 -- -- 5 Norte 1.4 848.7 0.5 99
2019-12-01 18:00:00 2 -- -- 10 Norte 3.6 848.3 -0.1 98
2019-12-01 17:00:00 2.1 -- -- 8 Sur 1.6 848.4 -0.2 98
2019-12-01 16:00:00 2.5 -- -- 12 Sudoeste 0 848.2 -0.8 98
2019-12-01 15:00:00 2.4 -- -- 13 Sudoeste 0.4 848.4 -0.9 98
2019-12-01 14:00:00 2.2 -- -- 14 Sudoeste 0.2 848.6 -0.6 99
2019-12-01 13:00:00 2.1 -- -- 18 Sur 0.8 849 -0.1 99
2019-12-01 12:00:00 0.4 -- -- 18 Sur 3 849.3 0.3 99
2019-12-01 11:00:00 0.3 -- -- 18 Sur 0 849.2 0.4 99
2019-12-01 10:00:00 -0.5 -- -- 19 Sudoeste 0 849.1 0.3 99
2019-12-01 09:00:00 -1.2 -- -- 17 Sur 0 849 0 99
2019-12-01 08:00:00 -0.3 -- -- 9 Oeste 0 848.8 -0.5 97
2019-12-01 07:00:00 -0.8 -- -- 9 Sudoeste 0 848.8 -1.1 97
2019-12-01 06:00:00 -0.7 -- -- 6 Sur 0 849 -1.6 97
2019-12-01 05:00:00 -0.6 -- -- 10 Sur 0 849.3 -1.7 95
2019-12-01 04:00:00 1.1 -- -- 12 Sudeste 0 849.9 -1.5 90
2019-12-01 03:00:00 0.6 -- -- 10 Sudoeste 0 850.6 -1.2 93
2019-12-01 02:00:00 0.7 -- -- 11 Sudeste 0 851 -1.1 95
2019-12-01 01:00:00 0.6 -- -- 10 Este 0 851.4 -1 95
2019-12-01 00:00:00 0.3 -- -- 11 Nordeste 0.2 851.8 -2.2 95
2019-11-30 23:00:00 0.5 -- -- 10 Noroeste 0 852.1 -2.1 95
2019-11-30 22:00:00 0.4 -- -- 32 Oeste 0 852.4 -0.9 99
2019-11-30 21:00:00 0.2 -- -- 29 Noroeste 2 854 0.4 99
2019-11-30 20:00:00 1.5 -- -- 35 Norte 4.2 854.2 1 99
2019-11-30 19:00:00 2.6 -- -- 34 Norte 3.2 853.3 0.3 99
2019-11-30 18:00:00 3.4 -- -- 33 Norte 5.4 853.6 0.3 99
2019-11-30 17:00:00 5.2 -- -- 32 Sur 4.4 853.2 -1.2 99
2019-11-30 16:00:00 6.9 -- -- 28 Sur 0 853 -2.4 99
2019-11-30 15:00:00 7 -- -- 29 Sur 0 853.3 -2.8 99
2019-11-30 14:00:00 7.1 -- -- 23 Sudeste 0 854.4 -2.3 99
2019-11-30 13:00:00 6.8 -- -- 26 Sur 0 855.4 -1.5 99
2019-11-30 12:00:00 6.9 -- -- 26 Sur 0 856.1 -0.8 99
2019-11-30 11:00:00 6.8 -- -- 22 Sur 0.2 856.7 -0.3 99
2019-11-30 10:00:00 6.6 -- -- 13 Sudeste 0 856.9 -0.3 99
2019-11-30 09:00:00 6.1 -- -- 15 Sur 0 856.9 -0.3 99
2019-11-30 08:00:00 6.1 -- -- 11 Sur 0.2 857 -0.5 99
2019-11-30 07:00:00 6.1 -- -- 13 Sur 0 857.2 -0.7 99
2019-11-30 06:00:00 6.3 -- -- 9 Sur 0.2 857.2 -0.8 99
2019-11-30 05:00:00 6.4 -- -- 10 Sur 0 857.5 -0.7 99
2019-11-30 04:00:00 6.6 -- -- 8 Sur 0 857.9 -0.8 99
2019-11-30 03:00:00 6.5 -- -- 9 Sur 0.2 858 -1.1 99
2019-11-30 02:00:00 6.2 -- -- 11 Sur 1.8 858.2 -0.6 99
2019-11-30 01:00:00 6 -- -- 9 Sur 7 858.7 -0.1 98
2019-11-30 00:00:00 5.8 -- -- 7 Sur 2.2 859.1 0.3 98
2019-11-29 23:00:00 5.6 -- -- 9 Sur 0 858.8 0 96
2019-11-29 22:00:00 5.3 -- -- 7 Sudeste 0 858.8 0 92
2019-11-29 21:00:00 6.3 -- -- 14 Sudeste 0 858.8 0.2 87
2019-11-29 20:00:00 6.4 -- -- 15 Sudoeste 0 858.8 0.4 86
2019-11-29 19:00:00 6.8 -- -- 10 Norte 0 858.8 0.9 93
2019-11-29 18:00:00 7.7 -- -- 9 Nordeste 0 858.6 0.6 95
2019-11-29 17:00:00 8.1 -- -- 16 Oeste 0.2 858.4 0.1 96
2019-11-29 16:00:00 8.3 -- -- 18 Noroeste 0.4 857.9 -0.6 97
2019-11-29 15:00:00 8.5 -- -- 10 Noroeste 0.4 858 -0.5 96
2019-11-29 14:00:00 8.3 -- -- 22 Noroeste 2 858.3 -0.1 97
2019-11-29 13:00:00 8.4 -- -- 19 Noroeste 0.2 858.5 0.3 98
2019-11-29 12:00:00 8.5 -- -- 19 Nordeste 0.4 858.5 0.8 99
2019-11-29 11:00:00 8.3 -- -- 21 Norte 0.4 858.4 1.6 99
2019-11-29 10:00:00 7.9 -- -- 22 Noroeste 0.6 858.2 1.7 99
2019-11-29 09:00:00 7.4 -- -- 20 Sudoeste 1.2 857.7 1.5 99
2019-11-29 08:00:00 7.6 -- -- 19 Oeste 2 856.8 0.9 99
2019-11-29 07:00:00 7.6 -- -- 19 Oeste 1.6 856.5 0.7 99
2019-11-29 06:00:00 7.6 -- -- 26 Oeste 4.4 856.2 0.9 99
2019-11-29 05:00:00 7.6 -- -- 28 Oeste 2.2 855.9 0.5 98
2019-11-29 04:00:00 7.4 -- -- 31 Sudoeste 2 855.8 0.8 99
2019-11-29 03:00:00 7.6 -- -- 28 Sudoeste 4.4 855.3 0.4 98
2019-11-29 02:00:00 7.5 -- -- 37 Oeste 2.2 855.4 0.6 97
2019-11-29 01:00:00 7.3 -- -- 39 Sudoeste 3.2 855 0.3 96
2019-11-29 00:00:00 6.9 -- -- 29 Sudoeste 1.6 854.9 0.3 95
2019-11-28 23:00:00 6.8 -- -- 28 Sudoeste 0.4 854.8 0.8 89
2019-11-28 22:00:00 7.2 -- -- 33 Sur 0 854.7 1 80
2019-11-28 21:00:00 7.2 -- -- 35 Sudoeste 0 854.6 1.3 81
2019-11-28 20:00:00 6.3 -- -- 26 Oeste 0 854 0.5 90
2019-11-28 19:00:00 5.2 -- -- 14 Sudoeste 0 853.7 0.5 99
2019-11-28 18:00:00 5.1 -- -- 14 Sur 0 853.3 0 97
2019-11-28 17:00:00 5.3 -- -- 13 Sur 0 853.5 -0.4 96
2019-11-28 16:00:00 6.1 -- -- 19 Oeste 0 853.2 -0.8 92
2019-11-28 15:00:00 7.1 -- -- 28 Oeste 0 853.3 -1.5 76
2019-11-28 14:00:00 7.9 -- -- 29 Sudoeste 0 853.9 -1.3 76
2019-11-28 13:00:00 7.6 -- -- 25 Sudoeste 0 854 -0.5 76
2019-11-28 12:00:00 6.4 -- -- 25 Oeste 0 854.8 0.9 87
2019-11-28 11:00:00 6.3 -- -- 27 Sudoeste 0 855.2 1.7 85
2019-11-28 10:00:00 6 -- -- 33 Sudoeste 0 854.5 1.4 92
2019-11-28 09:00:00 5.5 -- -- 23 Sudoeste 0.2 853.9 1.3 95
2019-11-28 08:00:00 5.1 -- -- 19 Sudoeste 1 853.5 0.6 97
2019-11-28 07:00:00 4.7 -- -- 19 Oeste 0 853.1 0.5 96
2019-11-28 06:00:00 4.3 -- -- 21 Sudoeste 0 852.6 0.2 97
2019-11-28 05:00:00 4.2 -- -- 31 Noroeste 0 852.9 0.7 97
2019-11-28 04:00:00 4.5 -- -- 29 Oeste 0 852.6 0.3 93
2019-11-28 03:00:00 4.5 -- -- 26 Oeste 0 852.4 0.1 93
2019-11-28 02:00:00 4.4 -- -- 24 Oeste 0 852.2 0.2 92
2019-11-28 01:00:00 4.5 -- -- 31 Sudoeste 0 852.3 1.1 92
2019-11-28 00:00:00 4.4 -- -- 32 Sur 0 852.3 0.8 92
2019-11-27 23:00:00 4.5 -- -- 38 Sudoeste 0 852 0.6 92
2019-11-27 22:00:00 4.5 -- -- 31 Oeste 0 851.2 0.1 90
2019-11-27 21:00:00 4.4 -- -- 22 Nordeste 0 851.5 0.6 86
2019-11-27 20:00:00 4.5 -- -- 26 Sudoeste 0 851.4 1.3 84
2019-11-27 19:00:00 4.7 -- -- 25 Sur 0 851.1 1 84
2019-11-27 18:00:00 4.6 -- -- 26 Sudoeste 0 850.9 1 84
2019-11-27 17:00:00 5 -- -- 23 Sudoeste 0 850.1 -0.2 83
2019-11-27 16:00:00 5.4 -- -- 27 Sur 0 850.1 -0.7 81
2019-11-27 15:00:00 5.6 -- -- 31 Sudoeste 0 849.9 -1.5 76
2019-11-27 14:00:00 6.2 -- -- 23 Sur 0 850.3 -1 84
2019-11-27 06:00:00 3.2 -- -- 34 Sudoeste 0 849.4 1 93
2019-11-27 05:00:00 2.9 -- -- 44 Oeste 0 849 1 93
2019-11-27 04:00:00 4.3 -- -- 44 Oeste 0 848.6 0 96
2019-11-27 03:00:00 4.9 -- -- 39 Oeste 0.6 848.4 0 98
2019-11-27 02:00:00 5.3 -- -- 38 Sudoeste 0 848 0.3 98
2019-11-27 01:00:00 5.6 -- -- 46 Sudoeste 1 848.6 0.8 96
2019-11-27 00:00:00 6.1 -- -- 40 Sudoeste 1.8 848.4 0.8 93
2019-11-26 23:00:00 6.7 -- -- 24 Sur 0 847.7 0.4 99
2019-11-26 22:00:00 7.1 -- -- 24 Sur 0 847.8 0.3 99
2019-11-26 21:00:00 7.5 -- -- 30 Sur 0.4 847.6 -0.9 99
2019-11-26 20:00:00 7.2 -- -- 34 Sur 0.8 847.3 -0.8 99
2019-11-26 19:00:00 7 -- -- 40 Sur 0 847.5 -1.6 99
2019-11-26 18:00:00 6.8 -- -- 39 Sur 0.2 848.5 -0.5 99
2019-11-26 17:00:00 6.4 -- -- 30 Sur 1.6 848.1 -2.2 99
2019-11-26 16:00:00 6 -- -- 32 Sur 0 849.1 -2 99
2019-11-26 15:00:00 6 -- -- 28 Sur 0.2 849 -2.9 99
2019-11-26 14:00:00 5.8 -- -- 31 Sur 0 850.3 -2.5 99
2019-11-26 13:00:00 5.7 -- -- 28 Sur 0.2 851.1 -1.2 99
2019-11-26 12:00:00 5.4 -- -- 23 Sur 0.8 851.9 -0.3 99
2019-11-26 11:00:00 5.6 -- -- 21 Sur 0.4 852.8 0.7 98
2019-11-26 10:00:00 5.6 -- -- 14 Sur 0 852.3 0.2 99
2019-11-26 09:00:00 4.8 -- -- 11 Sur 0.8 852.2 -0.2 98
2019-11-26 08:00:00 4.5 -- -- 7 Sur 3 852.1 -0.7 99
2019-11-26 07:00:00 4.4 -- -- 9 Sudeste 1.2 852.1 -1.3 95
2019-11-26 06:00:00 5.5 -- -- 15 Sudeste 0 852.4 -0.7 84
2019-11-26 05:00:00 5.1 -- -- 20 Sudeste 0 852.8 -0.7 74
2019-11-26 04:00:00 3.9 -- -- 9 Sudoeste 0 853.4 -0.8 83
2019-11-26 03:00:00 5.3 -- -- 12 Sudeste 0 853.1 -1.1 71
2019-11-26 02:00:00 5.1 -- -- 13 Este 0 853.5 -1.3 90
2019-11-26 01:00:00 5.9 -- -- 21 Nordeste 0 854.2 -0.3 89
2019-11-26 00:00:00 5.7 -- -- 13 Nordeste 0 854.2 -0.3 91
2019-11-25 23:00:00 5.7 -- -- 17 Oeste 0 854.8 0.6 95
2019-11-25 22:00:00 5.9 -- -- 23 Oeste 0 854.5 0.4 95
2019-11-25 21:00:00 6.1 -- -- 24 Norte 0 854.5 1 96
2019-11-25 20:00:00 6.2 -- -- 15 Norte 0 854.2 0.7 95
2019-11-25 19:00:00 6.5 -- -- 12 Noroeste 0 854.1 0.9 93
2019-11-25 18:00:00 6.5 -- -- 19 Noroeste 0 853.5 0.4 93
2019-11-25 17:00:00 6.8 -- -- 19 Norte 0 853.5 0.6 90
2019-11-25 16:00:00 7.4 -- -- 23 Oeste 0 853.2 0 84
2019-11-25 15:00:00 8.2 -- -- 30 Noroeste 0 853.1 -0.4 83
2019-11-25 14:00:00 7.4 -- -- 23 Noroeste 0 852.9 -0.3 89
2019-11-25 13:00:00 7.2 -- -- 30 Noroeste 0 853.2 0.6 92
2019-11-25 12:00:00 6.7 -- -- 27 Oeste 0 853.5 1.3 95
2019-11-25 11:00:00 6.4 -- -- 28 Oeste 0 853.2 0.9 95
2019-11-25 10:00:00 6.1 -- -- 33 Oeste 0 852.6 0.8 95
2019-11-25 09:00:00 5.9 -- -- 32 Noroeste 0 852.2 1 96
2019-11-25 08:00:00 5.8 -- -- 34 Norte 0.2 852.3 0.7 99
2019-11-25 07:00:00 5.8 -- -- 38 Oeste 0 851.8 0.2 99
2019-11-25 06:00:00 6 -- -- 34 Noroeste 0.4 851.2 -0.5 99
2019-11-25 05:00:00 6 -- -- 37 Oeste 0.4 851.6 0.8 99
2019-11-25 04:00:00 7 -- -- 39 Oeste 1.6 851.6 0.3 98
2019-11-25 03:00:00 8 -- -- 48 Sudoeste 2.4 851.7 0.6 98
2019-11-25 02:00:00 7.1 -- -- 22 Sudeste 3.6 850.8 -1.2 99
2019-11-25 01:00:00 3.3 -- -- 12 Sur 2.8 851.3 -0.1 99
2019-11-25 00:00:00 3.7 -- -- 18 Sur 0.8 851.1 -0.8 96
2019-11-24 23:00:00 5.6 -- -- 21 Sudoeste 0.8 852 0.3 95
2019-11-24 22:00:00 4.9 -- -- 24 Sudoeste 0.4 851.4 -0.5 98
2019-11-24 21:00:00 4.5 -- -- 22 Sudoeste 0.2 851.9 0.3 96
2019-11-24 20:00:00 3.6 -- -- 9 Sur 0 851.7 -0.2 96
2019-11-24 19:00:00 2.5 -- -- 12 Sudeste 0 851.9 0.3 91
2019-11-24 18:00:00 2.4 -- -- 11 Oeste 0 851.6 0.2 89
2019-11-24 17:00:00 3.1 -- -- 17 Noroeste 0 851.9 0.3 89
2019-11-24 16:00:00 3.2 -- -- 16 Noroeste 0 851.6 -0.5 88
2019-11-24 15:00:00 3 -- -- 15 Sudoeste 0 851.4 -1.2 89
2019-11-24 14:00:00 1.9 -- -- 27 Oeste 0 851.6 -1.2 99
2019-11-24 13:00:00 0.6 -- -- 14 Noroeste 0 852.1 0.2 99
2019-11-24 12:00:00 -0.2 -- -- 14 Oeste 0 852.6 1.3 99
2019-11-24 11:00:00 -0.3 -- -- 14 Noroeste 0 852.8 2 99
2019-11-24 10:00:00 -0.4 -- -- 21 Norte 0 851.9 1.9 99
2019-11-24 09:00:00 -0.5 -- -- 23 Norte 0 851.3 1.5 99
2019-11-24 08:00:00 -0.4 -- -- 24 Oeste 0 850.8 1.5 99
2019-11-24 07:00:00 -0.1 -- -- 25 Noroeste 0 850 0.8 99
2019-11-24 06:00:00 -0.2 -- -- 26 Nordeste 0 849.8 0.7 99
2019-11-24 05:00:00 -0.1 -- -- 32 Noroeste 0 849.3 0.5 99
2019-11-24 04:00:00 0 -- -- 27 Norte 0 849.2 0.3 99
2019-11-24 03:00:00 0.2 -- -- 31 Oeste 0 849.1 0.1 99
2019-11-24 02:00:00 0.4 -- -- 25 Oeste 0 848.8 0.2 99
2019-11-24 01:00:00 0.4 -- -- 38 Norte 0 848.9 0.3 99
2019-11-24 00:00:00 0.6 -- -- 28 Oeste 0 849 1.2 99
2019-11-23 23:00:00 1 -- -- 30 Noroeste 0 848.6 1.4 97
2019-11-23 22:00:00 1.5 -- -- 29 Sudoeste 0 848.6 2 95
2019-11-23 21:00:00 1.7 -- -- 30 Oeste 0.2 847.8 2.5 95
2019-11-23 20:00:00 1.8 -- -- 24 Norte 0.4 847.2 2.5 96
2019-11-23 19:00:00 1.9 -- -- 26 Noroeste 0.6 846.6 3.1 96
2019-11-23 18:00:00 2 -- -- 32 Norte 0.8 845.3 2.1 95
2019-11-23 17:00:00 2 -- -- 30 Norte 1.2 844.7 2.4 95
2019-11-23 16:00:00 2.1 -- -- 29 Noroeste 1.8 843.5 1.6 95
2019-11-23 15:00:00 2.2 -- -- 41 Noroeste 5.2 843.2 1.8 96
2019-11-23 14:00:00 1.6 -- -- 39 Norte 7.4 842.3 1.6 98
2019-11-23 13:00:00 0.5 -- -- 36 Noroeste 2.6 841.9 3.1 99
2019-11-23 12:00:00 -0.1 -- -- 50 Noroeste 0.4 841.4 4.1 99
2019-11-23 11:00:00 -0.5 -- -- 50 Noroeste 0.2 840.7 4.5 99
2019-11-23 10:00:00 -0.8 -- -- 51 Noroeste 0 838.8 2.7 99
2019-11-23 09:00:00 -0.7 -- -- 53 Oeste 0.2 837.3 2.2 99
2019-11-23 08:00:00 -0.5 -- -- 54 Noroeste 0 836.2 2.6 99
2019-11-23 07:00:00 -0.2 -- -- 48 Oeste 0.2 836.1 2.8 99
2019-11-23 06:00:00 -0.2 -- -- 48 Norte 0 835.1 2 99
2019-11-23 05:00:00 -0.1 -- -- 50 Oeste 0 833.6 0.2 99
2019-11-23 04:00:00 0 -- -- 50 Oeste 0.8 833.3 0.2 98
2019-11-23 03:00:00 0.6 -- -- 47 Oeste 1.8 833.1 -0.1 97
2019-11-23 02:00:00 0.9 -- -- 32 Noroeste 2.6 833.4 0.5 96
2019-11-23 01:00:00 1.4 -- -- 40 Oeste 5.4 833.1 -0.5 95
2019-11-23 00:00:00 2.9 -- -- 39 Sudoeste 7 833.2 -0.3 93
2019-11-22 23:00:00 3.3 -- -- 42 Sudoeste 1.4 832.9 -0.2 91
2019-11-22 22:00:00 3.5 -- -- 37 Sur 0 833.6 0.2 91
2019-11-22 21:00:00 3.5 -- -- 42 Sudoeste 0 833.5 1.7 92
2019-11-22 20:00:00 3.9 -- -- 35 Sudoeste 0 833.1 1.2 96
2019-11-22 19:00:00 4.2 -- -- 53 Sudoeste 2.6 833.4 1 93
2019-11-22 18:00:00 5.1 -- -- 25 Sudeste 5.2 831.8 -1.1 98
2019-11-22 17:00:00 5.2 -- -- 34 Sur 0 831.9 -2.2 99
2019-11-22 16:00:00 5.1 -- -- 37 Sudeste 0 832.4 -2.6 99
2019-11-22 15:00:00 4.7 -- -- 40 Sur 1.4 832.9 -3.5 99
2019-11-22 14:00:00 4.1 -- -- 48 Sur 6.6 834.1 -3.4 99
2019-11-22 13:00:00 3.9 -- -- 49 Sur 0.8 835 -3.4 99
2019-11-22 12:00:00 3.6 -- -- 47 Sudeste 0.2 836.4 -2.8 99
2019-11-22 11:00:00 3.2 -- -- 45 Sudeste 0.8 837.5 -2.3 99
2019-11-22 10:00:00 2.7 -- -- 41 Sur 3.2 838.4 -1.6 98
2019-11-22 09:00:00 2.7 -- -- 45 Sudeste 3.2 839.2 -1.5 98
2019-11-22 08:00:00 2.4 -- -- 40 Sudeste 2 839.8 -2.2 99
2019-11-22 07:00:00 2.1 -- -- 42 Sudeste 0.4 840 -2.6 99
2019-11-22 06:00:00 2 -- -- 28 Sur 0.8 840.7 -2.5 99
2019-11-22 05:00:00 1.8 -- -- 23 Sur 0.6 842 -1.6 99
2019-11-22 04:00:00 1.7 -- -- 23 Sur 0.2 842.6 -1.4 99
2019-11-22 03:00:00 1.4 -- -- 23 Sur 0 843.2 -1.3 99
2019-11-22 02:00:00 1.3 -- -- 27 Sur 0 843.6 -1.3 99
2019-11-22 01:00:00 1.3 -- -- 25 Sur 0 844 -1.7 99
2019-11-22 00:00:00 1.5 -- -- 21 Sur 0 844.5 -0.6 99
2019-11-21 23:00:00 1.7 -- -- 17 Sur 0 844.9 -0.2 97
2019-11-21 22:00:00 1.4 -- -- 6 Sur 0 845.7 0.5 98
2019-11-21 21:00:00 1.6 -- -- 5 Sur 0 845.1 0 98
2019-11-21 20:00:00 1.4 -- -- 10 Sudeste 0.2 845.1 0.2 98
2019-11-21 19:00:00 1.5 -- -- 8 Sudeste 0.2 845.2 0 97
2019-11-21 18:00:00 1.5 -- -- 5 Sur 0.4 845.1 0.3 95
2019-11-21 17:00:00 2.1 -- -- 7 Sudeste 2.6 844.9 -0.1 96
2019-11-21 16:00:00 1.6 -- -- 14 Sur 3.2 845.2 0.2 96
2019-11-21 15:00:00 2.6 -- -- 17 Sur 3.2 844.8 -1.1 93
2019-11-21 14:00:00 1 -- -- 16 Sur 3.4 845 -0.8 98
2019-11-21 13:00:00 1.9 -- -- 10 Sudeste 4.2 845 -0.3 97
2019-11-21 12:00:00 0.3 -- -- 3 Sudeste 1.8 845.9 0.6 99
2019-11-21 11:00:00 -0.2 -- -- -- -- 0 845.8 0.9 99
2019-11-21 10:00:00 -0.4 -- -- -- -- 0 845.3 0.6 99
2019-11-21 09:00:00 -0.4 -- -- -- -- 0 845.3 0.5 99
2019-11-21 08:00:00 -0.6 -- -- -- -- 0 844.9 0.1 99
2019-11-21 07:00:00 -0.6 -- -- -- -- 0 844.7 -0.3 99
2019-11-21 06:00:00 -0.5 -- -- -- -- 0 844.8 -0.2 99
2019-11-21 05:00:00 -0.4 -- -- -- -- 0 844.8 -0.4 99
2019-11-21 04:00:00 -0.4 -- -- -- -- 0 845 -0.4 99
2019-11-21 03:00:00 -0.4 -- -- -- -- 0 845 -0.3 99
2019-11-21 02:00:00 -0.5 -- -- -- -- 0 845.2 -0.2 99
2019-11-21 01:00:00 -0.6 -- -- -- -- 0 845.4 0 99
2019-11-21 00:00:00 -0.6 -- -- -- -- 0 845.3 0.1 99
2019-11-20 23:00:00 -0.5 -- -- -- -- 0 845.4 0.2 99
2019-11-20 22:00:00 -0.5 -- -- -- -- 0 845.4 0.2 99
2019-11-20 21:00:00 -0.4 -- -- 9 Sur 0 845.2 0.4 99
2019-11-20 20:00:00 -0.5 -- -- 14 Sur 0 845.2 -0.2 99
2019-11-20 19:00:00 -0.5 -- -- 19 Sur 0 845.2 -0.1 99
2019-11-20 18:00:00 -0.2 -- -- 19 Sur 0 844.8 -0.6 99
2019-11-20 17:00:00 -0.1 -- -- 22 Sur 0.6 845.4 -0.6 98
2019-11-20 16:00:00 0.4 -- -- 29 Sur 0.4 845.3 -1.3 96
2019-11-20 15:00:00 0.6 -- -- 23 Sur 0 845.4 -2.1 96
2019-11-20 14:00:00 1.5 -- -- 23 Sur 0 846 -1.5 89
2019-11-20 13:00:00 1.3 -- -- 23 Sudoeste 0 846.6 -1.2 90
2019-11-20 12:00:00 0.9 -- -- 31 Sudoeste 0 847.5 -0.2 88
2019-11-20 11:00:00 1.3 -- -- 24 Sur 0 847.5 0.2 90
2019-11-20 10:00:00 -0.8 -- -- 23 Sur 0 847.8 0.1 98
2019-11-20 09:00:00 -1.3 -- -- 21 Sur 0 847.7 -0.1 98
2019-11-20 08:00:00 -1.5 -- -- 15 Sur 0 847.3 -1 98
2019-11-20 07:00:00 -1.5 -- -- 15 Sur 0 847.7 -1.2 97
2019-11-20 06:00:00 -0.9 -- -- 10 Sur 0 847.8 -1.4 95
2019-11-20 05:00:00 -0.6 -- -- 9 Sur 0 848.3 -1.2 95
2019-11-20 04:00:00 -1.1 -- -- 7 Sur 0 848.9 -1.1 93
2019-11-20 03:00:00 -1.2 -- -- 6 Sur 0 849.2 -1.4 91
2019-11-20 02:00:00 -1.8 -- -- 4 Sudeste 0 849.5 -2 93
2019-11-20 01:00:00 -1.4 -- -- 3 Sur 0 850 -1.3 93
2019-11-20 00:00:00 -0.7 -- -- 8 Sudeste 0 850.6 -0.7 92
2019-11-19 23:00:00 -1 -- -- 8 Sudeste 0 851.5 0 92
2019-11-19 22:00:00 -0.7 -- -- 7 Sudeste 0 851.3 -0.1 93
2019-11-19 21:00:00 -0.5 -- -- 5 Sudeste 0 851.3 -0.1 91
2019-11-19 20:00:00 -0.3 -- -- 0 Calma 0 851.5 0.2 90
2019-11-19 19:00:00 0 -- -- 0 Calma 0 851.4 -0.1 91
2019-11-19 18:00:00 0.7 -- -- 3 Norte 0 851.4 -0.2 87
2019-11-19 17:00:00 2 -- -- 8 Nordeste 0 851.3 -0.8 84
2019-11-19 16:00:00 2.6 -- -- 13 Norte 0 851.5 -1.1 81
2019-11-19 15:00:00 3 -- -- 18 Norte 1 851.6 -1.8 80
2019-11-19 14:00:00 2.8 -- -- 14 Noroeste 2.6 852.1 -1.5 76
2019-11-19 13:00:00 3.2 -- -- 9 Norte 3 852.6 -1.3 82
2019-11-19 12:00:00 2.5 -- -- 12 Oeste 2.6 853.4 0 90
2019-11-19 11:00:00 1.2 -- -- 14 Noroeste 0.6 853.6 0.7 99
2019-11-19 10:00:00 -0.3 -- -- 0 Calma 0 853.9 1.1 99
2019-11-19 09:00:00 -1.3 -- -- 2 Norte 0 853.4 0.4 99
2019-11-19 08:00:00 -2.1 -- -- 15 Noroeste 0 852.9 -0.1 99
2019-11-19 07:00:00 -2.2 -- -- 15 Nordeste 0 852.8 -0.4 99
2019-11-19 06:00:00 -2.1 -- -- 10 Norte 0 853 0 99
2019-11-19 05:00:00 -1.8 -- -- 8 Norte 0 853 0.1 99
2019-11-19 04:00:00 -2.2 -- -- 16 Norte 0 853.2 0 99
2019-11-19 03:00:00 -1.8 -- -- 17 Noroeste 0 853 -0.7 99
2019-11-19 02:00:00 -1.6 -- -- 36 Norte 0 852.9 -0.4 99
2019-11-19 01:00:00 -1.3 -- -- 35 Norte 0 853.2 -0.3 99
2019-11-19 00:00:00 -0.8 -- -- 36 Norte 0 853.7 0.4 99
2019-11-18 23:00:00 -0.6 -- -- 45 Norte 0 853.3 0.5 99
2019-11-18 22:00:00 -0.5 -- -- 36 Noroeste 0 853.5 0.7 99
2019-11-18 21:00:00 -0.5 -- -- 31 Norte 0 853.3 0.8 99
2019-11-18 20:00:00 -0.5 -- -- 28 Noroeste 0 852.8 0.6 99
2019-11-18 19:00:00 -0.5 -- -- 36 Noroeste 0 852.8 1 99
2019-11-18 18:00:00 -0.3 -- -- 32 Noroeste 0.2 852.5 1.2 99
2019-11-18 17:00:00 -0.3 -- -- 33 Norte 0.2 852.2 0.8 99
2019-11-18 16:00:00 -0.3 -- -- 44 Noroeste 0.4 851.8 0.1 99
2019-11-18 15:00:00 -0.3 -- -- 42 Norte 0.4 851.3 -0.3 99
2019-11-18 14:00:00 -0.7 -- -- 39 Noroeste 0.2 851.4 0.2 99
2019-11-18 13:00:00 -0.6 -- -- 39 Noroeste 0 851.7 1 99
2019-11-18 12:00:00 -1.2 -- -- 37 Noroeste 0 851.6 1.6 99
2019-11-18 11:00:00 -1 -- -- 30 Norte 0 851.2 1.8 99
2019-11-18 10:00:00 -1.3 -- -- 33 Noroeste 0 850.7 1.8 99
2019-11-18 09:00:00 -1.3 -- -- 35 Norte 0 850 1.6 99
2019-11-18 08:00:00 -1.4 -- -- 31 Noroeste 0 849.4 1.7 99
2019-11-18 07:00:00 -1.4 -- -- 36 Norte 0 848.9 1.3 99
2019-11-18 06:00:00 -1.3 -- -- 47 Noroeste 0 848.4 1.2 99
2019-11-18 05:00:00 -1.1 -- -- 40 Noroeste 0 847.7 0.5 99
2019-11-18 04:00:00 -0.9 -- -- 36 Nordeste 0 847.6 0.3 99
2019-11-18 03:00:00 -0.9 -- -- 31 Noroeste 0 847.2 -0.1 99
2019-11-18 02:00:00 -0.6 -- -- 24 Norte 0 847.2 0.2 99
2019-11-18 01:00:00 -0.7 -- -- 30 Norte 0 847.3 0.2 99
2019-11-18 00:00:00 -0.4 -- -- 40 Norte 0 847.3 0.3 98
2019-11-17 23:00:00 -0.2 -- -- 27 Norte 0 847 -0.3 98
2019-11-17 22:00:00 0.3 -- -- 32 Norte 0.8 847.1 -0.4 98
2019-11-17 21:00:00 1.9 -- -- 35 Norte 1.8 847 -0.4 99
2019-11-17 20:00:00 2.3 -- -- 30 Noroeste 1.8 847.3 -0.6 99
2019-11-17 19:00:00 2.5 -- -- 34 Oeste 1.8 847.5 -0.4 99
2019-11-17 18:00:00 3 -- -- 36 Norte 3.4 847.4 -0.9 99
2019-11-17 17:00:00 3.3 -- -- 34 Oeste 5.6 847.9 -0.7 99
2019-11-17 16:00:00 3.6 -- -- 46 Sudoeste 9.8 847.9 -1.2 99
2019-11-17 15:00:00 3.4 -- -- 36 Oeste 7.6 848.3 -1.3 99
2019-11-17 14:00:00 3.5 -- -- 23 Oeste 9.8 848.6 -1.6 98
2019-11-17 13:00:00 2.8 -- -- 20 Sudoeste 11.2 849.1 -1.2 98
2019-11-17 12:00:00 2.2 -- -- 21 Sur 4.2 849.6 -0.5 99
2019-11-17 11:00:00 2.1 -- -- 20 Sudoeste 0.8 850.2 0.3 99
2019-11-17 10:00:00 1.4 -- -- 5 Sudoeste 0 850.3 0.2 99
2019-11-17 09:00:00 0 -- -- 0 Calma 0 850.1 0 99
2019-11-17 08:00:00 -0.5 -- -- -- -- 0 849.9 -0.6 99
2019-11-17 07:00:00 -0.9 -- -- -- -- 0 850.1 -0.6 99
2019-11-17 06:00:00 -1.1 -- -- -- -- 0 850.1 -1.2 99
2019-11-17 05:00:00 -1.4 -- -- -- -- 0 850.5 -0.6 99
2019-11-17 04:00:00 -1.5 -- -- -- -- 0 850.7 -0.5 99
2019-11-17 03:00:00 -1.7 -- -- -- -- 0 851.3 -0.4 98
2019-11-17 02:00:00 -1.7 -- -- -- -- 0 851.1 -0.8 98
2019-11-17 01:00:00 -1.7 -- -- -- -- 0 851.2 -1 97
2019-11-17 00:00:00 -1.7 -- -- -- -- 0 851.7 -0.1 97
2019-11-16 23:00:00 -1.7 -- -- -- -- 0 851.9 0.2 97
2019-11-16 22:00:00 -1.4 -- -- 30 Noroeste 0.2 852.2 0.9 96
2019-11-16 21:00:00 -0.8 -- -- 27 Noroeste 0 851.8 0.6 96
2019-11-16 20:00:00 -0.7 -- -- 27 Noroeste 0.2 851.7 0.8 93
2019-11-16 19:00:00 -0.6 -- -- 30 Noroeste 0.2 851.3 0.1 93
2019-11-16 18:00:00 -0.7 -- -- 13 Noroeste 1.2 851.2 0.2 93
2019-11-16 17:00:00 -0.2 -- -- 18 Noroeste 3 850.9 0.3 91
2019-11-16 16:00:00 0.2 -- -- 21 Noroeste 3.8 851.2 0.6 91
2019-11-16 15:00:00 -0.2 -- -- 18 Noroeste 3.8 851 -0.1 92
2019-11-16 14:00:00 0.1 -- -- 15 Norte 2.8 850.6 0 98
2019-11-16 13:00:00 -0.9 -- -- 15 Norte 0 850.6 0.7 99
2019-11-16 12:00:00 -2 -- -- 12 Noroeste 0 851.1 1.9 99
2019-11-16 11:00:00 -2.4 -- -- 11 Norte 0 850.6 2.5 99
2019-11-16 10:00:00 -2.9 -- -- 15 Norte 0 849.9 2 99
2019-11-16 09:00:00 -3.1 -- -- 12 Nordeste 0 849.2 2.5 99
2019-11-16 08:00:00 -3.3 -- -- 19 Norte 0 848.1 1.9 99
2019-11-16 07:00:00 -3.2 -- -- 28 Norte 0 847.9 1.9 99
2019-11-16 06:00:00 -3 -- -- 35 Norte 0 846.7 1.1 99
2019-11-16 05:00:00 -2.9 -- -- 34 Norte 0 846.2 0.6 99
2019-11-16 04:00:00 -2.7 -- -- 31 Norte 0 846 0.9 99
2019-11-16 03:00:00 -2.5 -- -- 22 Noroeste 0 845.6 0.5 99
2019-11-16 02:00:00 -2.4 -- -- 25 Norte 0 845.6 1.3 99
2019-11-16 01:00:00 -2.2 -- -- 19 Oeste 0 845.1 1 99
2019-11-16 00:00:00 -2.2 -- -- 23 Norte 0 845.1 1.5 99
2019-11-15 23:00:00 -2 -- -- 21 Oeste 0 844.3 1.3 98
2019-11-15 22:00:00 -1.8 -- -- 19 Noroeste 0 844.1 1.8 98
2019-11-15 21:00:00 -1.5 -- -- 29 Oeste 0 843.6 1.2 96
2019-11-15 20:00:00 -1.1 -- -- 24 Norte 0 843 1 96
2019-11-15 19:00:00 -1 -- -- 18 Noroeste 0 842.3 0.5 98
2019-11-15 18:00:00 -0.9 -- -- 17 Oeste 0.4 842.4 0.5 98
2019-11-15 17:00:00 -0.8 -- -- 29 Noroeste 0.4 842 0 99
2019-11-15 16:00:00 -0.7 -- -- 31 Noroeste 0 841.8 -0.2 99
2019-11-15 15:00:00 -1.2 -- -- 29 Noroeste 0 841.9 -0.4 99
2019-11-15 14:00:00 -1.2 -- -- 31 Noroeste 0.2 842 -0.1 99
2019-11-15 13:00:00 -1.6 -- -- 27 Norte 0 842 0.1 99
2019-11-15 12:00:00 -2 -- -- 24 Noroeste 0 842.3 0.9 99
2019-11-15 11:00:00 -2 -- -- 30 Noroeste 0 842.1 1.3 99
2019-11-15 10:00:00 -2.1 -- -- 21 Noroeste 0 841.9 1.5 99
2019-11-15 09:00:00 -2.2 -- -- 24 Noroeste 0 841.4 1.2 99
2019-11-15 08:00:00 -2.4 -- -- 31 Noroeste 0 840.8 0.7 99
2019-11-15 07:00:00 -2.2 -- -- 28 Norte 0 840.4 0.1 99
2019-11-15 06:00:00 -2.1 -- -- 32 Noroeste 0 840.2 -0.1 99
2019-11-15 05:00:00 -2 -- -- 25 Noroeste 0 840.1 -0.2 99
2019-11-15 04:00:00 -2 -- -- 30 Norte 0 840.3 0.1 99
2019-11-15 03:00:00 -2.1 -- -- 35 Oeste 0 840.3 0.6 99
2019-11-15 02:00:00 -2.1 -- -- 30 Noroeste 0 840.3 1.2 99
2019-11-15 01:00:00 -1.9 -- -- 31 Noroeste 0 840.2 1.8 99
2019-11-15 00:00:00 -2 -- -- 28 Noroeste 0 839.7 1.7 99